sensor_id;sensor_type;location;lat;lon;timestamp;temperature;humidity
5723;DHT22;2886;49.722;8.612;2023-03-26T00:01:52;10.00;99.90
5723;DHT22;2886;49.722;8.612;2023-03-26T00:04:18;10.00;99.90
5723;DHT22;2886;49.722;8.612;2023-03-26T00:06:46;9.90;99.90
5723;DHT22;2886;49.722;8.612;2023-03-26T00:09:14;9.90;99.90
5723;DHT22;2886;49.722;8.612;2023-03-26T00:11:41;9.90;99.90
5723;DHT22;2886;49.722;8.612;2023-03-26T00:14:08;9.80;99.90
5723;DHT22;2886;49.722;8.612;2023-03-26T00:16:40;9.70;99.90
5723;DHT22;2886;49.722;8.612;2023-03-26T00:19:07;9.60;99.90
5723;DHT22;2886;49.722;8.612;2023-03-26T00:21:38;9.50;99.90
5723;DHT22;2886;49.722;8.612;2023-03-26T00:24:13;9.50;99.90
5723;DHT22;2886;49.722;8.612;2023-03-26T00:26:42;9.40;99.90
5723;DHT22;2886;49.722;8.612;2023-03-26T00:29:10;9.40;99.90
5723;DHT22;2886;49.722;8.612;2023-03-26T00:31:37;9.30;99.90
5723;DHT22;2886;49.722;8.612;2023-03-26T00:34:04;9.30;99.90
5723;DHT22;2886;49.722;8.612;2023-03-26T00:36:30;9.20;99.90
5723;DHT22;2886;49.722;8.612;2023-03-26T00:39:00;9.20;99.90
5723;DHT22;2886;49.722;8.612;2023-03-26T00:41:32;9.20;99.90
5723;DHT22;2886;49.722;8.612;2023-03-26T00:44:03;9.10;99.90
5723;DHT22;2886;49.722;8.612;2023-03-26T00:46:32;9.10;99.90
5723;DHT22;2886;49.722;8.612;2023-03-26T00:49:01;9.10;99.90
5723;DHT22;2886;49.722;8.612;2023-03-26T00:51:28;9.00;99.90
5723;DHT22;2886;49.722;8.612;2023-03-26T00:53:55;9.00;99.90
5723;DHT22;2886;49.722;8.612;2023-03-26T00:56:21;8.90;99.90
5723;DHT22;2886;49.722;8.612;2023-03-26T00:58:46;8.90;99.90
5723;DHT22;2886;49.722;8.612;2023-03-26T01:01:26;8.90;99.90
5723;DHT22;2886;49.722;8.612;2023-03-26T01:03:53;9.00;99.90
5723;DHT22;2886;49.722;8.612;2023-03-26T01:06:31;9.00;99.90
5723;DHT22;2886;49.722;8.612;2023-03-26T01:09:03;9.00;99.90
5723;DHT22;2886;49.722;8.612;2023-03-26T01:11:34;9.10;99.90
5723;DHT22;2886;49.722;8.612;2023-03-26T01:14:05;9.10;99.90
5723;DHT22;2886;49.722;8.612;2023-03-26T01:16:45;9.10;99.90
5723;DHT22;2886;49.722;8.612;2023-03-26T01:19:28;9.00;99.90
5723;DHT22;2886;49.722;8.612;2023-03-26T01:21:57;8.90;99.90
5723;DHT22;2886;49.722;8.612;2023-03-26T01:24:23;8.90;99.90
5723;DHT22;2886;49.722;8.612;2023-03-26T01:27:07;8.90;99.90
5723;DHT22;2886;49.722;8.612;2023-03-26T01:32:07;8.90;99.90
5723;DHT22;2886;49.722;8.612;2023-03-26T01:37:59;9.00;99.90
5723;DHT22;2886;49.722;8.612;2023-03-26T01:45:52;9.00;99.90
5723;DHT22;2886;49.722;8.612;2023-03-26T01:48:18;9.10;99.90
5723;DHT22;2886;49.722;8.612;2023-03-26T01:50:44;9.10;99.90
5723;DHT22;2886;49.722;8.612;2023-03-26T01:53:12;9.10;99.90
5723;DHT22;2886;49.722;8.612;2023-03-26T01:56:02;9.20;99.90
5723;DHT22;2886;49.722;8.612;2023-03-26T02:07:38;9.20;99.90
5723;DHT22;2886;49.722;8.612;2023-03-26T02:09:47;9.20;99.90
5723;DHT22;2886;49.722;8.612;2023-03-26T02:12:15;9.20;99.90
5723;DHT22;2886;49.722;8.612;2023-03-26T02:14:41;9.20;99.90
5723;DHT22;2886;49.722;8.612;2023-03-26T02:17:08;9.20;99.90
5723;DHT22;2886;49.722;8.612;2023-03-26T02:19:37;9.20;99.90
5723;DHT22;2886;49.722;8.612;2023-03-26T02:22:07;9.20;99.90
5723;DHT22;2886;49.722;8.612;2023-03-26T02:24:38;9.20;99.90
5723;DHT22;2886;49.722;8.612;2023-03-26T02:27:04;9.30;99.90
5723;DHT22;2886;49.722;8.612;2023-03-26T02:29:33;9.30;99.90
5723;DHT22;2886;49.722;8.612;2023-03-26T02:32:03;9.20;99.90
5723;DHT22;2886;49.722;8.612;2023-03-26T02:34:29;9.30;99.90
5723;DHT22;2886;49.722;8.612;2023-03-26T02:36:55;9.20;99.90
5723;DHT22;2886;49.722;8.612;2023-03-26T02:39:24;9.20;99.90
5723;DHT22;2886;49.722;8.612;2023-03-26T02:41:50;9.20;99.90
5723;DHT22;2886;49.722;8.612;2023-03-26T02:44:22;9.20;99.90
5723;DHT22;2886;49.722;8.612;2023-03-26T02:46:48;9.20;99.90
5723;DHT22;2886;49.722;8.612;2023-03-26T02:49:13;9.20;99.90
5723;DHT22;2886;49.722;8.612;2023-03-26T02:51:45;9.20;99.90
5723;DHT22;2886;49.722;8.612;2023-03-26T02:54:10;9.20;99.90
5723;DHT22;2886;49.722;8.612;2023-03-26T02:56:36;9.30;99.90
5723;DHT22;2886;49.722;8.612;2023-03-26T02:59:01;9.30;99.90
5723;DHT22;2886;49.722;8.612;2023-03-26T03:01:27;9.30;99.90
5723;DHT22;2886;49.722;8.612;2023-03-26T03:03:55;9.30;99.90
5723;DHT22;2886;49.722;8.612;2023-03-26T03:06:21;9.30;99.90
5723;DHT22;2886;49.722;8.612;2023-03-26T03:08:46;9.30;99.90
5723;DHT22;2886;49.722;8.612;2023-03-26T03:11:15;9.30;99.90
5723;DHT22;2886;49.722;8.612;2023-03-26T03:13:42;9.30;99.90
5723;DHT22;2886;49.722;8.612;2023-03-26T03:16:08;9.40;99.90
5723;DHT22;2886;49.722;8.612;2023-03-26T03:18:34;9.30;99.90
5723;DHT22;2886;49.722;8.612;2023-03-26T03:21:00;9.30;99.90
5723;DHT22;2886;49.722;8.612;2023-03-26T03:23:30;9.30;99.90
5723;DHT22;2886;49.722;8.612;2023-03-26T03:25:56;9.30;99.90
5723;DHT22;2886;49.722;8.612;2023-03-26T03:28:23;9.30;99.90
5723;DHT22;2886;49.722;8.612;2023-03-26T03:30:48;9.40;99.90
5723;DHT22;2886;49.722;8.612;2023-03-26T03:33:20;9.30;99.90
5723;DHT22;2886;49.722;8.612;2023-03-26T03:35:47;9.40;99.90
5723;DHT22;2886;49.722;8.612;2023-03-26T03:38:14;9.40;99.90
5723;DHT22;2886;49.722;8.612;2023-03-26T03:40:40;9.40;99.90
5723;DHT22;2886;49.722;8.612;2023-03-26T03:43:06;9.40;99.90
5723;DHT22;2886;49.722;8.612;2023-03-26T03:45:31;9.40;99.90
5723;DHT22;2886;49.722;8.612;2023-03-26T03:47:57;9.50;99.90
5723;DHT22;2886;49.722;8.612;2023-03-26T03:50:22;9.50;99.90
5723;DHT22;2886;49.722;8.612;2023-03-26T03:52:48;9.50;99.90
5723;DHT22;2886;49.722;8.612;2023-03-26T03:55:15;9.50;99.90
5723;DHT22;2886;49.722;8.612;2023-03-26T03:57:40;9.50;99.90
5723;DHT22;2886;49.722;8.612;2023-03-26T04:00:07;9.50;99.90
5723;DHT22;2886;49.722;8.612;2023-03-26T04:02:36;9.50;99.90
5723;DHT22;2886;49.722;8.612;2023-03-26T04:05:03;9.60;99.90
5723;DHT22;2886;49.722;8.612;2023-03-26T04:07:32;9.50;99.90
5723;DHT22;2886;49.722;8.612;2023-03-26T04:09:58;9.50;99.90
5723;DHT22;2886;49.722;8.612;2023-03-26T04:12:26;9.50;99.90
5723;DHT22;2886;49.722;8.612;2023-03-26T04:14:53;9.50;99.90
5723;DHT22;2886;49.722;8.612;2023-03-26T04:17:22;9.50;99.90
5723;DHT22;2886;49.722;8.612;2023-03-26T04:19:48;9.50;99.90
5723;DHT22;2886;49.722;8.612;2023-03-26T04:22:15;9.50;99.90
5723;DHT22;2886;49.722;8.612;2023-03-26T04:24:43;9.50;99.90
5723;DHT22;2886;49.722;8.612;2023-03-26T04:27:15;9.50;99.90
5723;DHT22;2886;49.722;8.612;2023-03-26T04:29:44;9.50;99.90
5723;DHT22;2886;49.722;8.612;2023-03-26T04:32:17;9.50;99.90
5723;DHT22;2886;49.722;8.612;2023-03-26T04:34:46;9.50;99.90
5723;DHT22;2886;49.722;8.612;2023-03-26T04:37:19;9.50;99.90
5723;DHT22;2886;49.722;8.612;2023-03-26T04:39:46;9.50;99.90
5723;DHT22;2886;49.722;8.612;2023-03-26T04:42:12;9.50;99.90
5723;DHT22;2886;49.722;8.612;2023-03-26T04:44:38;9.50;99.90
5723;DHT22;2886;49.722;8.612;2023-03-26T04:47:06;9.40;99.90
5723;DHT22;2886;49.722;8.612;2023-03-26T04:49:32;9.40;99.90
5723;DHT22;2886;49.722;8.612;2023-03-26T04:51:58;9.40;99.90
5723;DHT22;2886;49.722;8.612;2023-03-26T04:54:23;9.40;99.90
5723;DHT22;2886;49.722;8.612;2023-03-26T04:56:58;9.40;99.90
5723;DHT22;2886;49.722;8.612;2023-03-26T04:59:28;9.40;99.90
5723;DHT22;2886;49.722;8.612;2023-03-26T05:02:00;9.40;99.90
5723;DHT22;2886;49.722;8.612;2023-03-26T05:04:26;9.40;99.90
5723;DHT22;2886;49.722;8.612;2023-03-26T05:06:58;9.40;99.90
5723;DHT22;2886;49.722;8.612;2023-03-26T05:09:27;9.40;99.90
5723;DHT22;2886;49.722;8.612;2023-03-26T05:11:55;9.40;99.90
5723;DHT22;2886;49.722;8.612;2023-03-26T05:14:21;9.40;99.90
5723;DHT22;2886;49.722;8.612;2023-03-26T05:16:47;9.40;99.90
5723;DHT22;2886;49.722;8.612;2023-03-26T05:19:14;9.40;99.90
5723;DHT22;2886;49.722;8.612;2023-03-26T05:21:40;9.50;99.90
5723;DHT22;2886;49.722;8.612;2023-03-26T05:24:06;9.50;99.90
5723;DHT22;2886;49.722;8.612;2023-03-26T05:26:35;9.50;99.90
5723;DHT22;2886;49.722;8.612;2023-03-26T05:29:01;9.50;99.90
5723;DHT22;2886;49.722;8.612;2023-03-26T05:31:27;9.50;99.90
5723;DHT22;2886;49.722;8.612;2023-03-26T05:33:55;9.50;99.90
5723;DHT22;2886;49.722;8.612;2023-03-26T05:36:21;9.50;99.90
5723;DHT22;2886;49.722;8.612;2023-03-26T05:38:48;9.60;99.90
5723;DHT22;2886;49.722;8.612;2023-03-26T05:41:15;9.60;99.90
5723;DHT22;2886;49.722;8.612;2023-03-26T05:43:41;9.60;99.90
5723;DHT22;2886;49.722;8.612;2023-03-26T05:46:10;9.60;99.90
5723;DHT22;2886;49.722;8.612;2023-03-26T05:48:36;9.70;99.90
5723;DHT22;2886;49.722;8.612;2023-03-26T05:51:03;9.70;99.90
5723;DHT22;2886;49.722;8.612;2023-03-26T05:53:29;9.70;99.90
5723;DHT22;2886;49.722;8.612;2023-03-26T05:55:55;9.70;99.90
5723;DHT22;2886;49.722;8.612;2023-03-26T05:58:30;9.80;99.90
5723;DHT22;2886;49.722;8.612;2023-03-26T06:03:27;9.70;99.90
5723;DHT22;2886;49.722;8.612;2023-03-26T06:05:52;9.70;99.90
5723;DHT22;2886;49.722;8.612;2023-03-26T06:08:19;9.70;99.90
5723;DHT22;2886;49.722;8.612;2023-03-26T06:10:46;9.70;99.90
5723;DHT22;2886;49.722;8.612;2023-03-26T06:13:12;9.70;99.90
5723;DHT22;2886;49.722;8.612;2023-03-26T06:15:38;9.70;99.90
5723;DHT22;2886;49.722;8.612;2023-03-26T06:18:04;9.60;99.90
5723;DHT22;2886;49.722;8.612;2023-03-26T06:20:30;9.60;99.90
5723;DHT22;2886;49.722;8.612;2023-03-26T06:22:56;9.60;99.90
5723;DHT22;2886;49.722;8.612;2023-03-26T06:25:21;9.40;99.90
5723;DHT22;2886;49.722;8.612;2023-03-26T06:27:48;9.40;99.90
5723;DHT22;2886;49.722;8.612;2023-03-26T06:30:14;9.30;99.90
5723;DHT22;2886;49.722;8.612;2023-03-26T06:32:40;9.20;99.90
5723;DHT22;2886;49.722;8.612;2023-03-26T06:35:06;9.20;99.90
5723;DHT22;2886;49.722;8.612;2023-03-26T06:37:31;9.20;99.90
5723;DHT22;2886;49.722;8.612;2023-03-26T06:39:57;9.20;99.90
5723;DHT22;2886;49.722;8.612;2023-03-26T06:42:23;9.20;99.90
5723;DHT22;2886;49.722;8.612;2023-03-26T06:44:48;9.20;99.90
5723;DHT22;2886;49.722;8.612;2023-03-26T06:47:14;9.20;99.90
5723;DHT22;2886;49.722;8.612;2023-03-26T06:49:39;9.20;99.90
5723;DHT22;2886;49.722;8.612;2023-03-26T06:52:06;9.20;99.90
5723;DHT22;2886;49.722;8.612;2023-03-26T06:54:31;9.30;99.90
5723;DHT22;2886;49.722;8.612;2023-03-26T06:56:57;9.30;99.90
5723;DHT22;2886;49.722;8.612;2023-03-26T06:59:24;9.30;99.90
5723;DHT22;2886;49.722;8.612;2023-03-26T07:01:50;9.30;99.90
5723;DHT22;2886;49.722;8.612;2023-03-26T07:04:16;9.30;99.90
5723;DHT22;2886;49.722;8.612;2023-03-26T07:06:41;9.40;99.90
5723;DHT22;2886;49.722;8.612;2023-03-26T07:09:07;9.40;99.90
5723;DHT22;2886;49.722;8.612;2023-03-26T07:11:32;9.40;99.90
5723;DHT22;2886;49.722;8.612;2023-03-26T07:13:58;9.50;99.90
5723;DHT22;2886;49.722;8.612;2023-03-26T07:16:24;9.50;99.90
5723;DHT22;2886;49.722;8.612;2023-03-26T07:18:49;9.50;99.90
5723;DHT22;2886;49.722;8.612;2023-03-26T07:21:16;9.60;99.90
5723;DHT22;2886;49.722;8.612;2023-03-26T07:23:42;9.60;99.90
5723;DHT22;2886;49.722;8.612;2023-03-26T07:26:22;9.60;99.90
5723;DHT22;2886;49.722;8.612;2023-03-26T07:28:58;9.60;99.90
5723;DHT22;2886;49.722;8.612;2023-03-26T07:31:42;9.60;99.90
5723;DHT22;2886;49.722;8.612;2023-03-26T07:40:02;9.60;99.90
5723;DHT22;2886;49.722;8.612;2023-03-26T07:42:47;9.50;99.90
5723;DHT22;2886;49.722;8.612;2023-03-26T07:45:29;9.50;99.90
5723;DHT22;2886;49.722;8.612;2023-03-26T07:47:59;9.50;99.90
5723;DHT22;2886;49.722;8.612;2023-03-26T07:50:25;9.60;99.90
5723;DHT22;2886;49.722;8.612;2023-03-26T07:52:51;9.60;99.90
5723;DHT22;2886;49.722;8.612;2023-03-26T07:55:17;9.70;99.90
5723;DHT22;2886;49.722;8.612;2023-03-26T08:00:20;9.70;99.90
5723;DHT22;2886;49.722;8.612;2023-03-26T08:08:52;10.10;99.90
5723;DHT22;2886;49.722;8.612;2023-03-26T08:11:49;10.20;99.90
5723;DHT22;2886;49.722;8.612;2023-03-26T08:17:20;10.20;99.90
5723;DHT22;2886;49.722;8.612;2023-03-26T08:19:59;10.20;99.90
5723;DHT22;2886;49.722;8.612;2023-03-26T08:22:37;10.10;99.90
5723;DHT22;2886;49.722;8.612;2023-03-26T08:30:46;9.90;99.90
5723;DHT22;2886;49.722;8.612;2023-03-26T08:33:18;9.80;99.90
5723;DHT22;2886;49.722;8.612;2023-03-26T08:35:46;9.80;99.90
5723;DHT22;2886;49.722;8.612;2023-03-26T08:38:15;9.60;99.90
5723;DHT22;2886;49.722;8.612;2023-03-26T09:03:44;9.10;99.90
5723;DHT22;2886;49.722;8.612;2023-03-26T09:06:20;9.20;99.90
5723;DHT22;2886;49.722;8.612;2023-03-26T09:23:29;10.20;99.90
5723;DHT22;2886;49.722;8.612;2023-03-26T09:37:53;10.30;99.90
5723;DHT22;2886;49.722;8.612;2023-03-26T09:40:27;10.40;99.90
5723;DHT22;2886;49.722;8.612;2023-03-26T10:02:38;10.70;99.90
5723;DHT22;2886;49.722;8.612;2023-03-26T10:08:48;10.70;99.90
5723;DHT22;2886;49.722;8.612;2023-03-26T10:11:22;10.60;99.90
5723;DHT22;2886;49.722;8.612;2023-03-26T10:17:09;11.00;99.90
5723;DHT22;2886;49.722;8.612;2023-03-26T10:33:49;13.00;99.90
5723;DHT22;2886;49.722;8.612;2023-03-26T10:36:22;12.90;99.50
5723;DHT22;2886;49.722;8.612;2023-03-26T10:41:53;13.30;99.90
5723;DHT22;2886;49.722;8.612;2023-03-26T10:49:49;13.30;98.60
5723;DHT22;2886;49.722;8.612;2023-03-26T10:52:22;13.00;99.50
5723;DHT22;2886;49.722;8.612;2023-03-26T10:58:08;12.50;99.90
5723;DHT22;2886;49.722;8.612;2023-03-26T11:00:26;12.50;99.90
5723;DHT22;2886;49.722;8.612;2023-03-26T11:03:17;12.30;99.90
5723;DHT22;2886;49.722;8.612;2023-03-26T11:05:55;12.30;99.90
5723;DHT22;2886;49.722;8.612;2023-03-26T11:08:29;12.50;99.90
5723;DHT22;2886;49.722;8.612;2023-03-26T11:16:24;12.60;99.90
5723;DHT22;2886;49.722;8.612;2023-03-26T11:19:01;12.20;99.90
5723;DHT22;2886;49.722;8.612;2023-03-26T11:27:07;11.60;99.90
5723;DHT22;2886;49.722;8.612;2023-03-26T11:29:41;11.50;99.90
5723;DHT22;2886;49.722;8.612;2023-03-26T11:32:12;11.50;99.90
5723;DHT22;2886;49.722;8.612;2023-03-26T11:34:48;11.80;99.90
5723;DHT22;2886;49.722;8.612;2023-03-26T11:37:22;12.00;99.90
5723;DHT22;2886;49.722;8.612;2023-03-26T11:39:53;12.30;99.90
5723;DHT22;2886;49.722;8.612;2023-03-26T11:42:22;12.70;99.90
5723;DHT22;2886;49.722;8.612;2023-03-26T11:45:21;13.10;99.90
5723;DHT22;2886;49.722;8.612;2023-03-26T11:47:55;13.20;99.90
5723;DHT22;2886;49.722;8.612;2023-03-26T11:50:27;13.20;99.90
5723;DHT22;2886;49.722;8.612;2023-03-26T11:53:05;13.10;99.90
5723;DHT22;2886;49.722;8.612;2023-03-26T11:55:34;13.00;99.90
5723;DHT22;2886;49.722;8.612;2023-03-26T11:58:02;13.00;99.90
5723;DHT22;2886;49.722;8.612;2023-03-26T12:00:29;13.00;99.90
5723;DHT22;2886;49.722;8.612;2023-03-26T12:02:57;12.90;99.90
5723;DHT22;2886;49.722;8.612;2023-03-26T12:05:25;13.20;99.90
5723;DHT22;2886;49.722;8.612;2023-03-26T12:08:01;13.70;99.90
5723;DHT22;2886;49.722;8.612;2023-03-26T12:10:34;14.00;99.90
5723;DHT22;2886;49.722;8.612;2023-03-26T12:13:28;14.10;99.90
5723;DHT22;2886;49.722;8.612;2023-03-26T12:15:56;14.10;99.90
5723;DHT22;2886;49.722;8.612;2023-03-26T12:18:24;14.00;97.50
5723;DHT22;2886;49.722;8.612;2023-03-26T12:24:02;13.80;98.80
5723;DHT22;2886;49.722;8.612;2023-03-26T12:26:43;13.70;97.30
5723;DHT22;2886;49.722;8.612;2023-03-26T12:29:15;13.60;95.30
5723;DHT22;2886;49.722;8.612;2023-03-26T12:31:57;13.50;96.00
5723;DHT22;2886;49.722;8.612;2023-03-26T12:34:30;13.30;95.90
5723;DHT22;2886;49.722;8.612;2023-03-26T12:36:59;13.20;96.70
5723;DHT22;2886;49.722;8.612;2023-03-26T12:39:35;13.30;96.90
5723;DHT22;2886;49.722;8.612;2023-03-26T12:42:05;13.40;96.60
5723;DHT22;2886;49.722;8.612;2023-03-26T12:44:44;13.60;96.20
5723;DHT22;2886;49.722;8.612;2023-03-26T12:47:19;13.60;95.40
5723;DHT22;2886;49.722;8.612;2023-03-26T12:49:47;13.60;95.20
5723;DHT22;2886;49.722;8.612;2023-03-26T12:52:35;13.60;94.50
5723;DHT22;2886;49.722;8.612;2023-03-26T12:55:59;13.60;95.80
5723;DHT22;2886;49.722;8.612;2023-03-26T13:01:24;13.40;95.00
5723;DHT22;2886;49.722;8.612;2023-03-26T13:06:38;13.30;93.10
5723;DHT22;2886;49.722;8.612;2023-03-26T13:12:07;12.70;98.30
5723;DHT22;2886;49.722;8.612;2023-03-26T13:14:57;12.60;99.90
5723;DHT22;2886;49.722;8.612;2023-03-26T13:28:02;13.40;96.10
5723;DHT22;2886;49.722;8.612;2023-03-26T13:30:40;13.50;96.90
5723;DHT22;2886;49.722;8.612;2023-03-26T13:38:48;13.60;96.40
5723;DHT22;2886;49.722;8.612;2023-03-26T13:47:18;14.00;96.20
5723;DHT22;2886;49.722;8.612;2023-03-26T13:49:52;14.20;96.10
5723;DHT22;2886;49.722;8.612;2023-03-26T13:55:29;14.50;94.00
5723;DHT22;2886;49.722;8.612;2023-03-26T14:01:09;14.80;92.90
5723;DHT22;2886;49.722;8.612;2023-03-26T14:03:59;14.60;91.60
5723;DHT22;2886;49.722;8.612;2023-03-26T14:17:32;14.30;86.30
5723;DHT22;2886;49.722;8.612;2023-03-26T14:20:26;14.30;84.90
5723;DHT22;2886;49.722;8.612;2023-03-26T14:26:02;14.50;78.70
5723;DHT22;2886;49.722;8.612;2023-03-26T14:28:51;14.60;79.10
5723;DHT22;2886;49.722;8.612;2023-03-26T14:54:22;14.80;64.90
5723;DHT22;2886;49.722;8.612;2023-03-26T15:00:01;14.60;65.10
5723;DHT22;2886;49.722;8.612;2023-03-26T15:20:22;14.10;67.60
5723;DHT22;2886;49.722;8.612;2023-03-26T15:23:37;14.10;68.30
5723;DHT22;2886;49.722;8.612;2023-03-26T15:35:18;13.80;68.60
5723;DHT22;2886;49.722;8.612;2023-03-26T15:38:07;13.60;68.60
5723;DHT22;2886;49.722;8.612;2023-03-26T15:43:27;13.50;70.90
5723;DHT22;2886;49.722;8.612;2023-03-26T15:59:39;12.80;76.20
5723;DHT22;2886;49.722;8.612;2023-03-26T16:04:55;12.70;78.20
5723;DHT22;2886;49.722;8.612;2023-03-26T16:16:19;12.40;80.80
5723;DHT22;2886;49.722;8.612;2023-03-26T16:22:04;12.20;83.90
5723;DHT22;2886;49.722;8.612;2023-03-26T16:24:33;12.10;86.00
5723;DHT22;2886;49.722;8.612;2023-03-26T16:29:32;11.80;88.80
5723;DHT22;2886;49.722;8.612;2023-03-26T16:32:15;11.70;90.00
5723;DHT22;2886;49.722;8.612;2023-03-26T16:35:03;11.60;90.60
5723;DHT22;2886;49.722;8.612;2023-03-26T16:37:49;11.50;91.40
5723;DHT22;2886;49.722;8.612;2023-03-26T16:43:15;11.40;92.80
5723;DHT22;2886;49.722;8.612;2023-03-26T17:02:24;11.20;94.60
5723;DHT22;2886;49.722;8.612;2023-03-26T17:05:04;11.20;94.90
5723;DHT22;2886;49.722;8.612;2023-03-26T17:07:36;11.10;95.30
5723;DHT22;2886;49.722;8.612;2023-03-26T17:10:18;11.10;95.70
5723;DHT22;2886;49.722;8.612;2023-03-26T17:21:03;10.90;97.00
5723;DHT22;2886;49.722;8.612;2023-03-26T17:24:06;10.80;97.30
5723;DHT22;2886;49.722;8.612;2023-03-26T17:32:10;10.60;97.40
5723;DHT22;2886;49.722;8.612;2023-03-26T17:37:27;10.60;97.70
5723;DHT22;2886;49.722;8.612;2023-03-26T17:42:31;10.50;98.60
5723;DHT22;2886;49.722;8.612;2023-03-26T17:47:52;10.40;99.90
5723;DHT22;2886;49.722;8.612;2023-03-26T17:53:27;10.30;99.90
5723;DHT22;2886;49.722;8.612;2023-03-26T17:55:57;10.20;99.90
5723;DHT22;2886;49.722;8.612;2023-03-26T17:58:34;10.20;99.90
5723;DHT22;2886;49.722;8.612;2023-03-26T18:01:06;10.20;99.90
5723;DHT22;2886;49.722;8.612;2023-03-26T18:04:17;10.10;99.90
5723;DHT22;2886;49.722;8.612;2023-03-26T18:16:20;9.80;99.90
5723;DHT22;2886;49.722;8.612;2023-03-26T18:18:56;9.70;99.80
5723;DHT22;2886;49.722;8.612;2023-03-26T18:21:30;9.60;99.60
5723;DHT22;2886;49.722;8.612;2023-03-26T18:23:57;9.50;99.50
5723;DHT22;2886;49.722;8.612;2023-03-26T18:29:12;9.40;99.70
5723;DHT22;2886;49.722;8.612;2023-03-26T18:31:41;9.40;99.80
5723;DHT22;2886;49.722;8.612;2023-03-26T18:34:16;9.30;99.90
5723;DHT22;2886;49.722;8.612;2023-03-26T18:37:35;9.30;99.90
5723;DHT22;2886;49.722;8.612;2023-03-26T18:42:20;9.30;99.90
5723;DHT22;2886;49.722;8.612;2023-03-26T18:44:47;9.40;99.90
5723;DHT22;2886;49.722;8.612;2023-03-26T18:47:14;9.40;99.90
5723;DHT22;2886;49.722;8.612;2023-03-26T18:49:45;9.50;99.90
5723;DHT22;2886;49.722;8.612;2023-03-26T18:52:18;9.50;99.90
5723;DHT22;2886;49.722;8.612;2023-03-26T18:54:49;9.50;99.90
5723;DHT22;2886;49.722;8.612;2023-03-26T18:57:24;9.50;99.90
5723;DHT22;2886;49.722;8.612;2023-03-26T18:59:52;9.50;99.90
5723;DHT22;2886;49.722;8.612;2023-03-26T19:02:19;9.50;99.90
5723;DHT22;2886;49.722;8.612;2023-03-26T19:04:48;9.50;99.90
5723;DHT22;2886;49.722;8.612;2023-03-26T19:07:19;9.50;99.90
5723;DHT22;2886;49.722;8.612;2023-03-26T19:09:49;9.60;99.90
5723;DHT22;2886;49.722;8.612;2023-03-26T19:12:20;9.60;99.90
5723;DHT22;2886;49.722;8.612;2023-03-26T19:17:52;9.60;99.90
5723;DHT22;2886;49.722;8.612;2023-03-26T19:20:23;9.60;99.90
5723;DHT22;2886;49.722;8.612;2023-03-26T19:22:51;9.60;99.90
5723;DHT22;2886;49.722;8.612;2023-03-26T19:25:22;9.50;99.90
5723;DHT22;2886;49.722;8.612;2023-03-26T19:27:49;9.50;99.90
5723;DHT22;2886;49.722;8.612;2023-03-26T19:30:30;9.40;99.90
5723;DHT22;2886;49.722;8.612;2023-03-26T19:33:11;9.40;99.90
5723;DHT22;2886;49.722;8.612;2023-03-26T19:35:36;9.40;99.90
5723;DHT22;2886;49.722;8.612;2023-03-26T19:38:12;9.40;99.90
5723;DHT22;2886;49.722;8.612;2023-03-26T19:40:43;9.30;99.90
5723;DHT22;2886;49.722;8.612;2023-03-26T19:43:13;9.30;99.90
5723;DHT22;2886;49.722;8.612;2023-03-26T19:45:39;9.30;99.90
5723;DHT22;2886;49.722;8.612;2023-03-26T19:48:08;9.30;99.90
5723;DHT22;2886;49.722;8.612;2023-03-26T19:50:39;9.30;99.90
5723;DHT22;2886;49.722;8.612;2023-03-26T19:56:13;9.20;99.90
5723;DHT22;2886;49.722;8.612;2023-03-26T19:58:41;9.20;99.90
5723;DHT22;2886;49.722;8.612;2023-03-26T20:01:14;9.10;99.90
5723;DHT22;2886;49.722;8.612;2023-03-26T20:03:44;9.10;99.90
5723;DHT22;2886;49.722;8.612;2023-03-26T20:06:16;9.00;99.90
5723;DHT22;2886;49.722;8.612;2023-03-26T20:08:42;9.00;99.90
5723;DHT22;2886;49.722;8.612;2023-03-26T20:11:21;9.00;99.90
5723;DHT22;2886;49.722;8.612;2023-03-26T20:13:52;9.00;99.90
5723;DHT22;2886;49.722;8.612;2023-03-26T20:16:29;9.00;99.90
5723;DHT22;2886;49.722;8.612;2023-03-26T20:18:56;8.90;99.90
5723;DHT22;2886;49.722;8.612;2023-03-26T20:21:24;8.90;99.90
5723;DHT22;2886;49.722;8.612;2023-03-26T20:23:52;8.90;99.90
5723;DHT22;2886;49.722;8.612;2023-03-26T20:26:21;8.90;99.90
5723;DHT22;2886;49.722;8.612;2023-03-26T20:28:50;8.90;99.90
5723;DHT22;2886;49.722;8.612;2023-03-26T20:31:22;8.90;99.90
5723;DHT22;2886;49.722;8.612;2023-03-26T20:33:49;8.90;99.90
5723;DHT22;2886;49.722;8.612;2023-03-26T20:36:16;9.00;99.90
5723;DHT22;2886;49.722;8.612;2023-03-26T20:38:43;9.00;99.90
5723;DHT22;2886;49.722;8.612;2023-03-26T20:41:12;9.00;99.90
5723;DHT22;2886;49.722;8.612;2023-03-26T20:43:41;8.80;99.90
5723;DHT22;2886;49.722;8.612;2023-03-26T20:46:13;8.70;99.90
5723;DHT22;2886;49.722;8.612;2023-03-26T20:48:39;8.60;99.90
5723;DHT22;2886;49.722;8.612;2023-03-26T20:51:07;8.50;99.90
5723;DHT22;2886;49.722;8.612;2023-03-26T20:53:33;8.40;99.90
5723;DHT22;2886;49.722;8.612;2023-03-26T20:55:59;8.40;99.90
5723;DHT22;2886;49.722;8.612;2023-03-26T20:58:26;8.40;99.90
5723;DHT22;2886;49.722;8.612;2023-03-26T21:00:52;8.30;99.90
5723;DHT22;2886;49.722;8.612;2023-03-26T21:03:19;8.30;99.90
5723;DHT22;2886;49.722;8.612;2023-03-26T21:05:45;8.30;99.90
5723;DHT22;2886;49.722;8.612;2023-03-26T21:08:15;8.30;99.90
5723;DHT22;2886;49.722;8.612;2023-03-26T21:10:43;8.30;99.90
5723;DHT22;2886;49.722;8.612;2023-03-26T21:15:52;8.30;99.90
5723;DHT22;2886;49.722;8.612;2023-03-26T21:18:18;8.30;99.90
5723;DHT22;2886;49.722;8.612;2023-03-26T21:21:06;8.30;99.90
5723;DHT22;2886;49.722;8.612;2023-03-26T21:23:44;8.30;99.90
5723;DHT22;2886;49.722;8.612;2023-03-26T21:26:40;8.30;99.90
5723;DHT22;2886;49.722;8.612;2023-03-26T21:29:08;8.20;99.90
5723;DHT22;2886;49.722;8.612;2023-03-26T21:31:34;8.10;99.90
5723;DHT22;2886;49.722;8.612;2023-03-26T21:34:03;8.00;99.90
5723;DHT22;2886;49.722;8.612;2023-03-26T21:36:30;7.80;99.90
5723;DHT22;2886;49.722;8.612;2023-03-26T21:38:57;7.70;99.90
5723;DHT22;2886;49.722;8.612;2023-03-26T21:43:48;7.60;99.90
5723;DHT22;2886;49.722;8.612;2023-03-26T21:46:14;7.50;99.90
5723;DHT22;2886;49.722;8.612;2023-03-26T21:48:40;7.40;99.90
5723;DHT22;2886;49.722;8.612;2023-03-26T21:51:10;7.50;99.90
5723;DHT22;2886;49.722;8.612;2023-03-26T21:53:42;7.50;99.90
5723;DHT22;2886;49.722;8.612;2023-03-26T21:56:44;7.40;99.90
5723;DHT22;2886;49.722;8.612;2023-03-26T21:59:20;7.40;99.90
5723;DHT22;2886;49.722;8.612;2023-03-26T22:02:02;7.40;99.90
5723;DHT22;2886;49.722;8.612;2023-03-26T22:04:38;7.40;99.90
5723;DHT22;2886;49.722;8.612;2023-03-26T22:07:33;7.40;99.90
5723;DHT22;2886;49.722;8.612;2023-03-26T22:10:01;7.40;99.90
5723;DHT22;2886;49.722;8.612;2023-03-26T22:12:27;7.40;99.90
5723;DHT22;2886;49.722;8.612;2023-03-26T22:14:52;7.40;99.90
5723;DHT22;2886;49.722;8.612;2023-03-26T22:17:18;7.40;99.90
5723;DHT22;2886;49.722;8.612;2023-03-26T22:19:44;7.40;99.90
5723;DHT22;2886;49.722;8.612;2023-03-26T22:22:09;7.30;99.90
5723;DHT22;2886;49.722;8.612;2023-03-26T22:24:36;7.20;99.90
5723;DHT22;2886;49.722;8.612;2023-03-26T22:27:02;7.20;99.90
5723;DHT22;2886;49.722;8.612;2023-03-26T22:29:28;7.10;99.90
5723;DHT22;2886;49.722;8.612;2023-03-26T22:31:54;7.00;99.90
5723;DHT22;2886;49.722;8.612;2023-03-26T22:34:20;6.90;99.90
5723;DHT22;2886;49.722;8.612;2023-03-26T22:36:47;6.90;99.90
5723;DHT22;2886;49.722;8.612;2023-03-26T22:39:12;6.80;99.90
5723;DHT22;2886;49.722;8.612;2023-03-26T22:41:38;6.80;99.90
5723;DHT22;2886;49.722;8.612;2023-03-26T22:44:05;6.70;99.90
5723;DHT22;2886;49.722;8.612;2023-03-26T22:46:31;6.70;99.90
5723;DHT22;2886;49.722;8.612;2023-03-26T22:48:57;6.70;99.90